createdAt,value
2023-04-20T00:02:03.058Z,101997.50
2023-04-20T00:04:30.749Z,101996.50
2023-04-20T00:06:58.654Z,102002.84
2023-04-20T00:09:27.967Z,101988.06
2023-04-20T00:11:56.859Z,101985.19
2023-04-20T00:14:24.406Z,101994.25
2023-04-20T00:16:52.048Z,101978.59
2023-04-20T00:19:20.931Z,101984.41
2023-04-20T00:21:48.797Z,101984.16
2023-04-20T00:24:16.368Z,101984.94
2023-04-20T00:26:43.884Z,101976.50
2023-04-20T00:29:12.899Z,101979.34
2023-04-20T00:31:40.545Z,101977.47
2023-04-20T00:34:08.170Z,101978.31
2023-04-20T00:36:35.782Z,101974.50
2023-04-20T00:39:04.901Z,101978.69
2023-04-20T00:41:32.444Z,101976.69
2023-04-20T00:44:00.872Z,101973.38
2023-04-20T00:46:29.840Z,101970.22
2023-04-20T00:48:58.374Z,101966.06
2023-04-20T00:51:28.787Z,101955.25
2023-04-20T00:53:56.800Z,101955.41
2023-04-20T00:56:26.674Z,101950.09
2023-04-20T00:58:54.255Z,101927.06
2023-04-20T01:01:21.778Z,101946.09
2023-04-20T01:03:50.828Z,101938.78
2023-04-20T01:06:18.734Z,101942.25
2023-04-20T01:08:48.241Z,101931.47
2023-04-20T01:11:15.821Z,101940.81
2023-04-20T01:13:43.918Z,101930.63
2023-04-20T01:16:12.451Z,101927.50
2023-04-20T01:18:45.060Z,101930.13
2023-04-20T01:21:14.230Z,101933.97
2023-04-20T01:23:43.434Z,101929.97
2023-04-20T01:26:12.696Z,101924.13
2023-04-20T01:28:40.334Z,101912.97
2023-04-20T01:31:09.492Z,101912.66
2023-04-20T01:33:37.264Z,101910.34
2023-04-20T01:36:05.930Z,101912.19
2023-04-20T01:38:34.759Z,101913.84
2023-04-20T01:41:05.445Z,101909.34
2023-04-20T01:43:34.658Z,101914.50
2023-04-20T01:46:02.550Z,101924.84
2023-04-20T01:48:30.105Z,101927.16
2023-04-20T01:50:57.668Z,101921.00
2023-04-20T01:53:25.600Z,101920.81
2023-04-20T01:55:53.193Z,101927.66
2023-04-20T01:58:24.760Z,101910.69
2023-04-20T02:00:52.340Z,101914.53
2023-04-20T02:03:20.179Z,101910.84
2023-04-20T02:05:48.056Z,101913.00
2023-04-20T02:08:15.618Z,101892.56
2023-04-20T02:10:43.226Z,101907.53
2023-04-20T02:13:11.522Z,101918.50
2023-04-20T02:15:40.574Z,101912.19
2023-04-20T02:18:08.843Z,101910.38
2023-04-20T02:20:36.640Z,101900.53
2023-04-20T02:23:04.229Z,101894.56
2023-04-20T02:25:31.791Z,101886.53
2023-04-20T02:27:59.338Z,101877.06
2023-04-20T02:30:26.924Z,101876.22
2023-04-20T02:32:55.858Z,101875.56
2023-04-20T02:35:23.836Z,101887.88
2023-04-20T02:37:51.345Z,101884.91
2023-04-20T02:40:18.947Z,101882.56
2023-04-20T02:42:46.538Z,101884.34
2023-04-20T02:45:14.134Z,101873.06
2023-04-20T02:47:44.151Z,101871.25
2023-04-20T02:50:15.951Z,101869.91
2023-04-20T02:53:02.540Z,101861.59
2023-04-20T02:55:33.164Z,101863.06
2023-04-20T02:58:05.981Z,101866.28
2023-04-20T03:00:59.457Z,101859.75
2023-04-20T03:03:28.235Z,101853.25
2023-04-20T03:05:57.580Z,101851.28
2023-04-20T03:08:25.582Z,101857.75
2023-04-20T03:10:55.240Z,101861.25
2023-04-20T03:13:22.833Z,101867.59
2023-04-20T03:15:56.805Z,101863.56
2023-04-20T03:18:35.362Z,101861.75
2023-04-20T03:21:04.564Z,101860.91
2023-04-20T03:23:32.622Z,101854.59
2023-04-20T03:26:02.115Z,101852.94
2023-04-20T03:28:43.119Z,101851.09
2023-04-20T03:31:14.542Z,101860.25
2023-04-20T03:33:42.315Z,101858.06
2023-04-20T03:36:12.182Z,101857.56
2023-04-20T03:38:39.788Z,101853.59
2023-04-20T03:41:08.353Z,101860.38
2023-04-20T03:43:36.120Z,101868.84
2023-04-20T03:46:03.896Z,101878.09
2023-04-20T03:48:31.496Z,101863.00
2023-04-20T03:50:59.224Z,101854.03
2023-04-20T03:53:28.962Z,101861.78
2023-04-20T03:55:56.746Z,101866.09
2023-04-20T03:58:24.288Z,101860.78
2023-04-20T04:01:08.719Z,101859.56
2023-04-20T04:03:39.773Z,101860.59
2023-04-20T04:06:08.525Z,101859.06
2023-04-20T04:08:37.398Z,101854.28
2023-04-20T04:11:05.663Z,101851.94
2023-04-20T04:13:34.698Z,101854.78
2023-04-20T04:16:04.177Z,101845.13
2023-04-20T04:18:33.092Z,101837.47
2023-04-20T04:21:08.040Z,101846.78
2023-04-20T04:23:38.085Z,101840.94
2023-04-20T04:26:13.071Z,101848.22
2023-04-20T04:28:45.822Z,101854.03
2023-04-20T04:31:21.349Z,101848.41
2023-04-20T04:33:49.539Z,101850.41
2023-04-20T04:36:26.784Z,101853.72
2023-04-20T04:38:56.634Z,101859.88
2023-04-20T04:41:25.400Z,101862.13
2023-04-20T04:43:55.900Z,101867.31
2023-04-20T04:46:29.842Z,101876.59
2023-04-20T04:49:00.807Z,101884.22
2023-04-20T04:51:28.387Z,101886.25
2023-04-20T04:53:57.249Z,101888.56
2023-04-20T04:56:24.765Z,101880.91
2023-04-20T04:58:52.383Z,101875.44
2023-04-20T05:01:19.984Z,101885.59
2023-04-20T05:03:47.941Z,101878.47
2023-04-20T05:06:15.561Z,101881.78
2023-04-20T05:08:43.103Z,101875.16
2023-04-20T05:11:12.104Z,101876.00
2023-04-20T05:13:39.647Z,101891.25
2023-04-20T05:16:07.820Z,101888.66
2023-04-20T05:18:35.406Z,101884.78
2023-04-20T05:21:03.156Z,101881.16
2023-04-20T05:23:30.701Z,101891.97
2023-04-20T05:25:58.346Z,101879.69
2023-04-20T05:28:27.274Z,101888.47
2023-04-20T05:30:55.630Z,101886.13
2023-04-20T05:33:23.483Z,101886.47
2023-04-20T05:35:51.542Z,101887.31
2023-04-20T05:38:19.082Z,101889.63
2023-04-20T05:40:46.808Z,101898.94
2023-04-20T05:43:14.316Z,101893.28
2023-04-20T05:45:43.277Z,101909.56
2023-04-20T05:48:10.905Z,101899.63
2023-04-20T05:50:38.488Z,101896.13
2023-04-20T05:53:06.291Z,101895.81
2023-04-20T05:55:33.818Z,101896.34
2023-04-20T05:58:01.441Z,101895.97
2023-04-20T06:00:29.002Z,101892.34
2023-04-20T06:02:58.067Z,101898.00
2023-04-20T06:05:25.824Z,101890.97
2023-04-20T06:07:53.435Z,101897.00
2023-04-20T06:10:21.239Z,101901.97
2023-04-20T06:12:49.032Z,101892.34
2023-04-20T06:15:16.697Z,101889.53
2023-04-20T06:17:44.308Z,101890.38
2023-04-20T06:20:13.309Z,101886.91
2023-04-20T06:22:43.440Z,101894.16
2023-04-20T06:25:11.484Z,101892.19
2023-04-20T06:27:39.057Z,101890.38
2023-04-20T06:30:07.779Z,101891.72
2023-04-20T06:32:35.300Z,101895.72
2023-04-20T06:35:04.072Z,101889.75
2023-04-20T06:37:32.946Z,101892.56
2023-04-20T06:40:00.458Z,101893.06
2023-04-20T06:42:28.033Z,101889.75
2023-04-20T06:44:58.024Z,101900.06
2023-04-20T06:47:31.263Z,101892.88
2023-04-20T06:49:59.170Z,101889.22
2023-04-20T06:52:26.980Z,101886.06
2023-04-20T06:54:55.883Z,101892.94
2023-04-20T06:57:23.431Z,101901.38
2023-04-20T06:59:50.930Z,101902.66
2023-04-20T07:02:18.573Z,101904.00
2023-04-20T07:04:46.257Z,101908.19
2023-04-20T07:07:13.884Z,101905.53
2023-04-20T07:09:41.400Z,101914.16
2023-04-20T07:12:11.347Z,101915.63
2023-04-20T07:14:39.280Z,101901.38
2023-04-20T07:17:06.904Z,101899.03
2023-04-20T07:19:34.906Z,101905.38
2023-04-20T07:22:02.446Z,101907.34
2023-04-20T07:24:29.986Z,101924.97
2023-04-20T07:26:58.233Z,101917.63
2023-04-20T07:29:27.145Z,101922.97
2023-04-20T07:31:54.786Z,101920.00
2023-04-20T07:34:22.752Z,101922.34
2023-04-20T07:36:50.286Z,101917.75
2023-04-20T07:39:18.132Z,101926.75
2023-04-20T07:41:45.810Z,101921.75
2023-04-20T07:44:13.908Z,101924.56
2023-04-20T07:46:42.850Z,101940.06
2023-04-20T07:49:10.462Z,101931.44
2023-04-20T07:51:38.033Z,101943.16
2023-04-20T07:54:05.666Z,101947.28
2023-04-20T07:56:33.304Z,101955.06
2023-04-20T07:59:00.869Z,101951.03
2023-04-20T08:01:28.394Z,101951.69
2023-04-20T08:03:57.566Z,101938.72
2023-04-20T08:06:25.595Z,101940.06
2023-04-20T08:08:53.112Z,101935.47
2023-04-20T08:11:21.533Z,101935.50
2023-04-20T08:13:49.099Z,101933.50
2023-04-20T08:16:16.695Z,101943.47
2023-04-20T08:18:44.316Z,101952.78
2023-04-20T08:21:13.674Z,101957.94
2023-04-20T08:23:41.211Z,101954.75
2023-04-20T08:26:08.895Z,101958.09
2023-04-20T08:28:36.637Z,101963.91
2023-04-20T08:31:04.174Z,101984.34
2023-04-20T08:33:32.098Z,101982.84
2023-04-20T08:35:59.632Z,101973.09
2023-04-20T08:38:33.649Z,101976.47
2023-04-20T08:41:02.136Z,101983.28
2023-04-20T08:43:29.794Z,101982.94
2023-04-20T08:45:59.611Z,101980.19
2023-04-20T08:48:29.124Z,101974.75
2023-04-20T08:50:56.826Z,101965.16
2023-04-20T08:53:24.344Z,101956.47
2023-04-20T08:55:53.223Z,101957.31
2023-04-20T08:58:21.001Z,101969.47
2023-04-20T09:00:49.263Z,101961.66
2023-04-20T09:03:17.250Z,101960.81
2023-04-20T09:05:46.416Z,101967.72
2023-04-20T09:08:13.972Z,101964.22
2023-04-20T09:10:43.013Z,101956.75
2023-04-20T09:13:22.472Z,101949.59
2023-04-20T09:15:50.076Z,101941.44
2023-04-20T09:18:18.728Z,101960.09
2023-04-20T09:20:46.315Z,101952.31
2023-04-20T09:23:14.780Z,101961.78
2023-04-20T09:25:43.578Z,101962.97
2023-04-20T09:28:13.601Z,101962.78
2023-04-20T09:30:43.774Z,101964.81
2023-04-20T09:33:12.522Z,101972.28
2023-04-20T09:35:41.863Z,101968.44
2023-04-20T09:38:09.875Z,101980.78
2023-04-20T09:40:37.569Z,101986.13
2023-04-20T09:43:10.711Z,101978.97
2023-04-20T09:45:39.814Z,101982.59
2023-04-20T09:48:08.415Z,101974.94
2023-04-20T09:50:48.120Z,101968.09
2023-04-20T09:53:18.244Z,101973.78
2023-04-20T09:55:47.579Z,101976.78
2023-04-20T09:58:15.452Z,101969.28
2023-04-20T10:00:44.692Z,101967.75
2023-04-20T10:03:12.706Z,101981.47
2023-04-20T10:05:40.964Z,101972.78
2023-04-20T10:08:08.717Z,101965.25
2023-04-20T10:10:46.959Z,101946.78
2023-04-20T10:13:15.680Z,101939.78
2023-04-20T10:15:44.699Z,101937.47
2023-04-20T10:18:20.047Z,101922.13
2023-04-20T10:20:47.911Z,101930.13
2023-04-20T10:23:16.353Z,101937.97
2023-04-20T10:25:45.367Z,101944.41
2023-04-20T10:28:12.999Z,101949.41
2023-04-20T10:30:53.584Z,101951.88
2023-04-20T10:33:22.785Z,101966.72
2023-04-20T10:35:52.009Z,101973.09
2023-04-20T10:38:30.097Z,101984.75
2023-04-20T10:40:57.859Z,101982.41
2023-04-20T10:43:25.470Z,101987.13
2023-04-20T10:45:54.411Z,101979.47
2023-04-20T10:48:22.063Z,101982.44
2023-04-20T10:50:49.768Z,101972.09
2023-04-20T10:53:21.955Z,101973.41
2023-04-20T10:55:59.193Z,101977.72
2023-04-20T10:58:26.861Z,101983.41
2023-04-20T11:01:04.107Z,101975.91
2023-04-20T11:03:34.319Z,101978.09
2023-04-20T11:06:03.630Z,101982.75
2023-04-20T11:08:39.457Z,101974.94
2023-04-20T11:11:08.770Z,101970.94
2023-04-20T11:13:37.741Z,101973.09
2023-04-20T11:16:13.189Z,101964.78
2023-04-20T11:18:51.399Z,101953.84
2023-04-20T11:21:19.063Z,101955.97
2023-04-20T11:23:46.987Z,101941.13
2023-04-20T11:26:14.659Z,101955.19
2023-04-20T11:28:54.387Z,101951.72
2023-04-20T11:31:25.561Z,101954.78
2023-04-20T11:33:53.453Z,101949.72
2023-04-20T11:36:22.437Z,101950.78
2023-04-20T11:38:50.428Z,101954.47
2023-04-20T11:41:18.859Z,101950.09
2023-04-20T11:43:46.587Z,101953.53
2023-04-20T11:46:15.951Z,101949.72
2023-04-20T11:48:45.522Z,101940.50
2023-04-20T11:51:13.257Z,101949.25
2023-04-20T11:53:41.291Z,101942.63
2023-04-20T11:56:09.716Z,101947.41
2023-04-20T11:58:38.089Z,101946.22
2023-04-20T12:01:06.736Z,101941.03
2023-04-20T12:03:34.627Z,101947.19
2023-04-20T12:06:03.724Z,101951.19
2023-04-20T12:08:32.074Z,101952.81
2023-04-20T12:10:59.773Z,101959.78
2023-04-20T12:13:27.320Z,101960.13
2023-04-20T12:15:55.100Z,101961.53
2023-04-20T12:18:23.134Z,101956.34
2023-04-20T12:20:51.508Z,101957.31
2023-04-20T12:23:20.422Z,101963.25
2023-04-20T12:25:47.977Z,101964.94
2023-04-20T12:28:15.939Z,101965.63
2023-04-20T12:30:43.580Z,101969.66
2023-04-20T12:33:11.513Z,101966.47
2023-04-20T12:35:39.302Z,101974.28
2023-04-20T12:38:07.435Z,101966.91
2023-04-20T12:40:37.120Z,101965.91
2023-04-20T12:43:04.792Z,101967.06
2023-04-20T12:45:32.496Z,101966.88
2023-04-20T12:48:00.777Z,101962.16
2023-04-20T12:50:28.541Z,101966.00
2023-04-20T12:52:58.275Z,101963.34
2023-04-20T12:55:26.742Z,101960.13
2023-04-20T12:57:55.743Z,101957.06
2023-04-20T13:00:23.377Z,101952.34
2023-04-20T13:02:51.503Z,101945.66
2023-04-20T13:05:19.849Z,101950.56
2023-04-20T13:07:47.537Z,101945.72
2023-04-20T13:10:15.273Z,101946.78
2023-04-20T13:12:42.912Z,101942.78
2023-04-20T13:15:13.057Z,101938.19
2023-04-20T13:17:41.410Z,101938.56
2023-04-20T13:20:10.107Z,101934.16
2023-04-20T13:22:47.051Z,101929.91
2023-04-20T13:25:25.365Z,101922.63
2023-04-20T13:27:55.083Z,101923.34
2023-04-20T13:30:24.798Z,101930.97
2023-04-20T13:32:52.713Z,101916.03
2023-04-20T13:35:20.473Z,101912.84
2023-04-20T13:37:48.112Z,101911.44
2023-04-20T13:40:16.221Z,101906.75
2023-04-20T13:42:44.058Z,101914.66
2023-04-20T13:45:12.687Z,101907.03
2023-04-20T13:47:41.900Z,101902.22
2023-04-20T13:50:10.678Z,101899.91
2023-04-20T13:52:38.364Z,101895.00
2023-04-20T13:55:06.416Z,101889.00
2023-04-20T13:57:34.146Z,101894.56
2023-04-20T14:00:02.632Z,101877.88
2023-04-20T14:02:33.469Z,101881.00
2023-04-20T14:05:04.158Z,101876.53
2023-04-20T14:07:32.100Z,101868.34
2023-04-20T14:10:00.394Z,101858.78
2023-04-20T14:12:28.481Z,101864.19
2023-04-20T14:14:58.415Z,101862.66
2023-04-20T14:17:26.540Z,101854.31
2023-04-20T14:19:54.210Z,101858.38
2023-04-20T14:22:23.134Z,101853.53
2023-04-20T14:24:50.767Z,101847.72
2023-04-20T14:27:18.446Z,101845.63
2023-04-20T14:29:46.098Z,101849.84
2023-04-20T14:32:13.835Z,101842.81
2023-04-20T14:34:41.586Z,101839.50
2023-04-20T14:37:09.702Z,101832.25
2023-04-20T14:39:38.618Z,101837.44
2023-04-20T14:42:07.470Z,101827.50
2023-04-20T14:44:35.143Z,101822.38
2023-04-20T14:47:03.341Z,101809.34
2023-04-20T14:49:30.986Z,101818.53
2023-04-20T14:51:58.509Z,101814.34
2023-04-20T14:54:26.088Z,101814.41
2023-04-20T14:56:54.962Z,101812.78
2023-04-20T14:59:24.468Z,101801.28
2023-04-20T15:02:01.687Z,101796.97
2023-04-20T15:04:29.933Z,101795.53
2023-04-20T15:06:57.668Z,101792.03
2023-04-20T15:09:25.404Z,101786.03
2023-04-20T15:11:52.918Z,101788.53
2023-04-20T15:14:22.116Z,101792.78
2023-04-20T15:16:51.861Z,101780.56
2023-04-20T15:19:20.202Z,101782.41
2023-04-20T15:21:47.741Z,101788.84
2023-04-20T15:24:15.509Z,101777.69
2023-04-20T15:26:43.127Z,101775.00
2023-04-20T15:29:10.729Z,101770.69
2023-04-20T15:31:40.264Z,101764.91
2023-04-20T15:34:07.788Z,101759.50
2023-04-20T15:36:35.411Z,101762.91
2023-04-20T15:39:03.730Z,101761.66
2023-04-20T15:41:31.261Z,101765.38
2023-04-20T15:43:58.829Z,101758.28
2023-04-20T15:46:26.753Z,101757.47
2023-04-20T15:48:55.894Z,101759.53
2023-04-20T15:51:24.696Z,101757.88
2023-04-20T15:53:52.663Z,101765.78
2023-04-20T15:56:21.944Z,101767.88
2023-04-20T15:58:50.132Z,101771.31
2023-04-20T16:01:18.655Z,101760.38
2023-04-20T16:03:47.592Z,101762.56
2023-04-20T16:06:16.820Z,101762.38
2023-04-20T16:08:45.237Z,101755.75
2023-04-20T16:11:12.813Z,101759.59
2023-04-20T16:13:40.317Z,101748.47
2023-04-20T16:16:08.751Z,101751.94
2023-04-20T16:18:36.370Z,101753.69
2023-04-20T16:21:04.033Z,101756.38
2023-04-20T16:23:32.960Z,101760.44
2023-04-20T16:26:00.542Z,101762.88
2023-04-20T16:28:28.074Z,101763.81
2023-04-20T16:30:55.652Z,101752.16
2023-04-20T16:33:23.586Z,101763.34
2023-04-20T16:35:51.139Z,101757.31
2023-04-20T16:38:20.092Z,101761.69
2023-04-20T16:40:49.003Z,101760.13
2023-04-20T16:43:16.523Z,101758.50
2023-04-20T16:45:44.068Z,101760.13
2023-04-20T16:48:11.761Z,101763.09
2023-04-20T16:50:40.369Z,101755.84
2023-04-20T16:53:09.658Z,101765.28
2023-04-20T16:55:37.260Z,101767.25
2023-04-20T16:58:06.401Z,101758.44
2023-04-20T17:00:35.292Z,101756.47
2023-04-20T17:03:06.703Z,101764.31
2023-04-20T17:05:34.462Z,101757.19
2023-04-20T17:08:01.979Z,101769.56
2023-04-20T17:10:29.596Z,101762.72
2023-04-20T17:12:57.177Z,101745.44
2023-04-20T17:15:26.191Z,101759.34
2023-04-20T17:17:53.776Z,101753.38
2023-04-20T17:20:21.527Z,101760.91
2023-04-20T17:22:49.074Z,101752.44
2023-04-20T17:25:16.797Z,101753.13
2023-04-20T17:27:44.318Z,101754.13
2023-04-20T17:30:12.869Z,101755.44
2023-04-20T17:32:41.909Z,101747.63
2023-04-20T17:35:09.790Z,101743.50
2023-04-20T17:37:38.023Z,101742.53
2023-04-20T17:40:07.595Z,101732.09
2023-04-20T17:42:35.189Z,101732.69
2023-04-20T17:45:02.781Z,101734.56
2023-04-20T17:47:32.455Z,101718.00
2023-04-20T17:50:01.551Z,101723.09
2023-04-20T17:52:29.090Z,101725.59
2023-04-20T17:54:56.617Z,101725.00
2023-04-20T17:57:24.217Z,101728.72
2023-04-20T17:59:51.801Z,101730.00
2023-04-20T18:02:19.482Z,101728.16
2023-04-20T18:04:47.294Z,101735.41
2023-04-20T18:07:17.685Z,101726.94
2023-04-20T18:09:45.478Z,101735.38
2023-04-20T18:12:13.024Z,101741.72
2023-04-20T18:14:42.275Z,101745.13
2023-04-20T18:17:09.793Z,101751.66
2023-04-20T18:19:37.372Z,101756.81
2023-04-20T18:22:05.012Z,101762.16
2023-04-20T18:24:33.984Z,101756.00
2023-04-20T18:27:01.867Z,101761.63
2023-04-20T18:29:29.827Z,101764.94
2023-04-20T18:31:59.094Z,101756.72
2023-04-20T18:34:29.940Z,101759.59
2023-04-20T18:36:57.915Z,101759.88
2023-04-20T18:39:25.952Z,101764.09
2023-04-20T18:41:54.823Z,101774.31
2023-04-20T18:44:22.556Z,101762.44
2023-04-20T18:46:50.391Z,101768.88
2023-04-20T18:49:17.981Z,101771.66
2023-04-20T18:51:45.540Z,101768.25
2023-04-20T18:54:13.058Z,101764.84
2023-04-20T18:56:40.703Z,101766.03
2023-04-20T18:59:10.627Z,101764.34
2023-04-20T19:01:40.481Z,101763.25
2023-04-20T19:04:09.211Z,101763.03
2023-04-20T19:06:37.036Z,101761.19
2023-04-20T19:09:07.292Z,101755.47
2023-04-20T19:11:35.752Z,101764.47
2023-04-20T19:14:03.296Z,101763.56
2023-04-20T19:16:33.045Z,101767.13
2023-04-20T19:19:01.267Z,101760.78
2023-04-20T19:21:28.842Z,101774.38
2023-04-20T19:23:56.589Z,101768.47
2023-04-20T19:26:24.868Z,101767.75
2023-04-20T19:28:53.343Z,101773.44
2023-04-20T19:31:21.098Z,101781.81
2023-04-20T19:33:50.096Z,101779.34
2023-04-20T19:36:19.034Z,101779.06
2023-04-20T19:38:46.650Z,101778.88
2023-04-20T19:41:14.221Z,101776.91
2023-04-20T19:43:41.751Z,101780.28
2023-04-20T19:46:09.769Z,101784.91
2023-04-20T19:48:37.504Z,101786.88
2023-04-20T19:51:06.626Z,101787.03
2023-04-20T19:53:34.476Z,101791.06
2023-04-20T19:56:04.178Z,101790.41
2023-04-20T19:58:33.234Z,101789.41
2023-04-20T20:01:01.110Z,101798.44
2023-04-20T20:03:28.788Z,101796.81
2023-04-20T20:05:56.519Z,101799.47
2023-04-20T20:08:25.496Z,101803.13
2023-04-20T20:10:53.077Z,101795.44
2023-04-20T20:13:20.605Z,101800.63
2023-04-20T20:15:48.182Z,101804.81
2023-04-20T20:18:15.897Z,101802.66
2023-04-20T20:20:43.404Z,101811.28
2023-04-20T20:23:10.929Z,101813.31
2023-04-20T20:25:40.032Z,101806.19
2023-04-20T20:28:07.593Z,101809.88
2023-04-20T20:30:35.182Z,101802.72
2023-04-20T20:33:02.831Z,101796.06
2023-04-20T20:35:31.579Z,101810.22
2023-04-20T20:37:59.494Z,101803.06
2023-04-20T20:40:27.278Z,101800.38
2023-04-20T20:42:56.711Z,101792.25
2023-04-20T20:45:24.332Z,101797.56
2023-04-20T20:47:52.074Z,101794.91
2023-04-20T20:50:20.063Z,101796.44
2023-04-20T20:52:47.770Z,101787.59
2023-04-20T20:55:15.294Z,101794.09
2023-04-20T20:57:42.846Z,101798.94
2023-04-20T21:00:13.662Z,101797.25
2023-04-20T21:02:42.009Z,101801.28
2023-04-20T21:05:10.332Z,101793.63
2023-04-20T21:07:38.059Z,101797.94
2023-04-20T21:10:06.544Z,101797.25
2023-04-20T21:12:34.128Z,101792.78
2023-04-20T21:15:01.674Z,101808.25
2023-04-20T21:17:31.077Z,101799.78
2023-04-20T21:19:58.828Z,101804.94
2023-04-20T21:22:27.075Z,101801.63
2023-04-20T21:24:54.635Z,101798.44
2023-04-20T21:27:22.155Z,101807.78
2023-04-20T21:29:49.678Z,101805.78
2023-04-20T21:32:17.284Z,101812.13
2023-04-20T21:34:46.338Z,101812.13
2023-04-20T21:37:13.879Z,101812.63
2023-04-20T21:39:41.480Z,101813.66
2023-04-20T21:42:09.025Z,101806.63
2023-04-20T21:44:36.602Z,101812.63
2023-04-20T21:47:04.130Z,101807.31
2023-04-20T21:49:31.649Z,101800.66
2023-04-20T21:52:00.544Z,101806.63
2023-04-20T21:54:28.105Z,101801.97
2023-04-20T21:56:55.686Z,101807.66
2023-04-20T21:59:23.195Z,101804.63
2023-04-20T22:01:50.800Z,101814.13
2023-04-20T22:04:19.584Z,101801.97
2023-04-20T22:06:48.623Z,101808.81
2023-04-20T22:09:18.371Z,101808.63
2023-04-20T22:11:46.376Z,101808.31
2023-04-20T22:14:14.056Z,101811.13
2023-04-20T22:16:41.799Z,101808.66
2023-04-20T22:19:09.430Z,101815.16
2023-04-20T22:21:37.001Z,101809.00
2023-04-20T22:24:05.039Z,101804.66
2023-04-20T22:26:33.929Z,101808.47
2023-04-20T22:29:02.523Z,101806.00
2023-04-20T22:31:30.191Z,101805.66
2023-04-20T22:33:57.812Z,101801.84
2023-04-20T22:36:25.368Z,101802.19
2023-04-20T22:38:53.048Z,101798.03
2023-04-20T22:41:20.589Z,101807.38
2023-04-20T22:43:49.435Z,101805.50
2023-04-20T22:46:17.041Z,101802.06
2023-04-20T22:48:48.249Z,101805.69
2023-04-20T22:51:17.110Z,101800.72
2023-04-20T22:53:45.026Z,101800.53
2023-04-20T22:56:13.350Z,101804.03
2023-04-20T22:58:40.911Z,101807.72
2023-04-20T23:01:09.832Z,101795.56
2023-04-20T23:03:37.691Z,101806.03
2023-04-20T23:06:06.979Z,101798.06
2023-04-20T23:08:34.704Z,101795.38
2023-04-20T23:11:02.394Z,101792.41
2023-04-20T23:13:29.948Z,101796.41
2023-04-20T23:15:57.559Z,101802.22
2023-04-20T23:18:26.537Z,101801.72
2023-04-20T23:20:54.037Z,101797.06
2023-04-20T23:23:21.588Z,101795.56
2023-04-20T23:25:49.121Z,101794.22
2023-04-20T23:28:16.772Z,101797.72
2023-04-20T23:30:44.406Z,101795.38
2023-04-20T23:33:11.989Z,101792.06
2023-04-20T23:35:40.970Z,101790.06
2023-04-20T23:38:08.484Z,101789.72
2023-04-20T23:40:36.013Z,101787.75
2023-04-20T23:43:03.577Z,101785.59
2023-04-20T23:45:31.140Z,101782.59
2023-04-20T23:47:58.716Z,101778.13
2023-04-20T23:50:26.323Z,101779.75
2023-04-20T23:52:55.219Z,101781.94
2023-04-20T23:55:23.012Z,101779.75
2023-04-20T23:57:52.247Z,101779.94
